sensor_id;sensor_type;location;lat;lon;timestamp;P1;durP1;ratioP1;P2;durP2;ratioP2
22160;SDS011;49035;48.812;11.762;2023-03-04T00:03:55;31.80;;;15.77;;
22160;SDS011;49035;48.812;11.762;2023-03-04T00:06:21;32.00;;;16.77;;
22160;SDS011;49035;48.812;11.762;2023-03-04T00:08:46;37.23;;;17.03;;
22160;SDS011;49035;48.812;11.762;2023-03-04T00:11:12;36.53;;;16.83;;
22160;SDS011;49035;48.812;11.762;2023-03-04T00:13:37;31.50;;;15.90;;
22160;SDS011;49035;48.812;11.762;2023-03-04T00:16:03;28.93;;;16.03;;
22160;SDS011;49035;48.812;11.762;2023-03-04T00:18:29;34.50;;;16.07;;
22160;SDS011;49035;48.812;11.762;2023-03-04T00:20:55;34.10;;;17.03;;
22160;SDS011;49035;48.812;11.762;2023-03-04T00:23:20;36.57;;;17.00;;
22160;SDS011;49035;48.812;11.762;2023-03-04T00:25:46;34.47;;;16.93;;
22160;SDS011;49035;48.812;11.762;2023-03-04T00:28:11;33.97;;;15.57;;
22160;SDS011;49035;48.812;11.762;2023-03-04T00:30:37;32.87;;;16.30;;
22160;SDS011;49035;48.812;11.762;2023-03-04T00:33:02;31.20;;;14.57;;
22160;SDS011;49035;48.812;11.762;2023-03-04T00:35:28;28.13;;;14.77;;
22160;SDS011;49035;48.812;11.762;2023-03-04T00:37:53;37.53;;;14.17;;
22160;SDS011;49035;48.812;11.762;2023-03-04T00:40:19;35.60;;;15.80;;
22160;SDS011;49035;48.812;11.762;2023-03-04T00:42:45;33.63;;;15.37;;
22160;SDS011;49035;48.812;11.762;2023-03-04T00:45:10;35.73;;;15.57;;
22160;SDS011;49035;48.812;11.762;2023-03-04T00:47:36;30.77;;;15.93;;
22160;SDS011;49035;48.812;11.762;2023-03-04T00:50:01;32.87;;;14.90;;
22160;SDS011;49035;48.812;11.762;2023-03-04T00:52:28;36.30;;;15.13;;
22160;SDS011;49035;48.812;11.762;2023-03-04T00:54:53;34.13;;;15.17;;
22160;SDS011;49035;48.812;11.762;2023-03-04T00:57:19;35.43;;;17.20;;
22160;SDS011;49035;48.812;11.762;2023-03-04T00:59:44;33.23;;;16.83;;
22160;SDS011;49035;48.812;11.762;2023-03-04T01:02:10;27.53;;;15.10;;
22160;SDS011;49035;48.812;11.762;2023-03-04T01:04:36;28.10;;;14.50;;
22160;SDS011;49035;48.812;11.762;2023-03-04T01:07:02;35.77;;;15.77;;
22160;SDS011;49035;48.812;11.762;2023-03-04T01:09:28;38.73;;;16.67;;
22160;SDS011;49035;48.812;11.762;2023-03-04T01:11:54;36.70;;;16.60;;
22160;SDS011;49035;48.812;11.762;2023-03-04T01:14:20;37.33;;;16.87;;
22160;SDS011;49035;48.812;11.762;2023-03-04T01:16:45;43.27;;;19.30;;
22160;SDS011;49035;48.812;11.762;2023-03-04T01:19:11;40.57;;;18.47;;
22160;SDS011;49035;48.812;11.762;2023-03-04T01:21:36;45.37;;;19.03;;
22160;SDS011;49035;48.812;11.762;2023-03-04T01:24:02;37.90;;;18.83;;
22160;SDS011;49035;48.812;11.762;2023-03-04T01:26:28;39.10;;;18.10;;
22160;SDS011;49035;48.812;11.762;2023-03-04T01:28:53;44.67;;;20.80;;
22160;SDS011;49035;48.812;11.762;2023-03-04T01:31:19;43.93;;;18.93;;
22160;SDS011;49035;48.812;11.762;2023-03-04T01:33:44;38.70;;;18.83;;
22160;SDS011;49035;48.812;11.762;2023-03-04T01:36:10;43.50;;;19.27;;
22160;SDS011;49035;48.812;11.762;2023-03-04T01:38:35;41.27;;;17.13;;
22160;SDS011;49035;48.812;11.762;2023-03-04T01:41:01;40.77;;;18.60;;
22160;SDS011;49035;48.812;11.762;2023-03-04T01:43:27;39.93;;;18.23;;
22160;SDS011;49035;48.812;11.762;2023-03-04T01:45:55;50.10;;;17.87;;
22160;SDS011;49035;48.812;11.762;2023-03-04T01:48:25;42.87;;;18.90;;
22160;SDS011;49035;48.812;11.762;2023-03-04T01:50:57;34.83;;;17.00;;
22160;SDS011;49035;48.812;11.762;2023-03-04T01:53:27;46.70;;;20.20;;
22160;SDS011;49035;48.812;11.762;2023-03-04T01:55:56;45.47;;;19.67;;
22160;SDS011;49035;48.812;11.762;2023-03-04T01:58:25;41.90;;;19.30;;
22160;SDS011;49035;48.812;11.762;2023-03-04T02:00:55;43.83;;;18.80;;
22160;SDS011;49035;48.812;11.762;2023-03-04T02:03:21;36.13;;;18.67;;
22160;SDS011;49035;48.812;11.762;2023-03-04T02:05:50;33.03;;;17.40;;
22160;SDS011;49035;48.812;11.762;2023-03-04T02:08:17;42.60;;;18.37;;
22160;SDS011;49035;48.812;11.762;2023-03-04T02:10:44;38.63;;;17.87;;
22160;SDS011;49035;48.812;11.762;2023-03-04T02:13:11;36.87;;;18.37;;
22160;SDS011;49035;48.812;11.762;2023-03-04T02:15:38;37.20;;;18.47;;
22160;SDS011;49035;48.812;11.762;2023-03-04T02:18:23;37.47;;;18.13;;
22160;SDS011;49035;48.812;11.762;2023-03-04T02:26:25;45.23;;;19.57;;
22160;SDS011;49035;48.812;11.762;2023-03-04T02:28:52;40.30;;;19.07;;
22160;SDS011;49035;48.812;11.762;2023-03-04T02:34:06;45.03;;;19.70;;
22160;SDS011;49035;48.812;11.762;2023-03-04T02:36:44;49.87;;;21.13;;
22160;SDS011;49035;48.812;11.762;2023-03-04T02:39:20;42.13;;;19.23;;
22160;SDS011;49035;48.812;11.762;2023-03-04T02:41:55;46.40;;;20.60;;
22160;SDS011;49035;48.812;11.762;2023-03-04T02:44:23;42.97;;;20.03;;
22160;SDS011;49035;48.812;11.762;2023-03-04T02:46:54;40.37;;;17.30;;
22160;SDS011;49035;48.812;11.762;2023-03-04T02:49:20;43.20;;;19.23;;
22160;SDS011;49035;48.812;11.762;2023-03-04T02:51:49;39.70;;;18.00;;
22160;SDS011;49035;48.812;11.762;2023-03-04T02:54:21;32.43;;;16.73;;
22160;SDS011;49035;48.812;11.762;2023-03-04T02:56:49;33.40;;;15.70;;
22160;SDS011;49035;48.812;11.762;2023-03-04T02:59:16;32.80;;;16.07;;
22160;SDS011;49035;48.812;11.762;2023-03-04T03:01:42;38.83;;;17.10;;
22160;SDS011;49035;48.812;11.762;2023-03-04T03:04:08;32.97;;;16.03;;
22160;SDS011;49035;48.812;11.762;2023-03-04T03:06:34;40.83;;;17.33;;
22160;SDS011;49035;48.812;11.762;2023-03-04T03:09:00;44.17;;;17.77;;
22160;SDS011;49035;48.812;11.762;2023-03-04T03:11:25;46.00;;;18.77;;
22160;SDS011;49035;48.812;11.762;2023-03-04T03:13:54;42.13;;;19.97;;
22160;SDS011;49035;48.812;11.762;2023-03-04T03:16:19;41.40;;;18.40;;
22160;SDS011;49035;48.812;11.762;2023-03-04T03:18:45;42.60;;;19.77;;
22160;SDS011;49035;48.812;11.762;2023-03-04T03:21:10;50.27;;;19.93;;
22160;SDS011;49035;48.812;11.762;2023-03-04T03:23:36;45.73;;;20.23;;
22160;SDS011;49035;48.812;11.762;2023-03-04T03:26:02;49.93;;;20.40;;
22160;SDS011;49035;48.812;11.762;2023-03-04T03:28:28;45.07;;;20.37;;
22160;SDS011;49035;48.812;11.762;2023-03-04T03:30:54;41.23;;;19.27;;
22160;SDS011;49035;48.812;11.762;2023-03-04T03:33:19;38.23;;;17.67;;
22160;SDS011;49035;48.812;11.762;2023-03-04T03:35:45;41.13;;;18.20;;
22160;SDS011;49035;48.812;11.762;2023-03-04T03:38:11;44.80;;;19.20;;
22160;SDS011;49035;48.812;11.762;2023-03-04T03:40:36;48.27;;;19.77;;
22160;SDS011;49035;48.812;11.762;2023-03-04T03:43:02;48.77;;;20.90;;
22160;SDS011;49035;48.812;11.762;2023-03-04T03:45:28;44.27;;;19.77;;
22160;SDS011;49035;48.812;11.762;2023-03-04T03:47:53;53.27;;;20.70;;
22160;SDS011;49035;48.812;11.762;2023-03-04T03:50:19;44.23;;;19.47;;
22160;SDS011;49035;48.812;11.762;2023-03-04T03:52:44;45.70;;;20.13;;
22160;SDS011;49035;48.812;11.762;2023-03-04T03:55:10;43.90;;;18.93;;
22160;SDS011;49035;48.812;11.762;2023-03-04T03:57:35;45.43;;;21.23;;
22160;SDS011;49035;48.812;11.762;2023-03-04T04:00:01;38.30;;;19.30;;
22160;SDS011;49035;48.812;11.762;2023-03-04T04:02:27;45.30;;;20.70;;
22160;SDS011;49035;48.812;11.762;2023-03-04T04:04:53;43.97;;;20.63;;
22160;SDS011;49035;48.812;11.762;2023-03-04T04:07:18;44.97;;;20.50;;
22160;SDS011;49035;48.812;11.762;2023-03-04T04:09:44;48.97;;;20.97;;
22160;SDS011;49035;48.812;11.762;2023-03-04T04:12:10;43.93;;;20.10;;
22160;SDS011;49035;48.812;11.762;2023-03-04T04:14:38;51.57;;;19.50;;
22160;SDS011;49035;48.812;11.762;2023-03-04T04:17:04;47.10;;;19.53;;
22160;SDS011;49035;48.812;11.762;2023-03-04T04:19:29;41.87;;;19.60;;
22160;SDS011;49035;48.812;11.762;2023-03-04T04:21:55;45.93;;;19.27;;
22160;SDS011;49035;48.812;11.762;2023-03-04T04:24:21;44.50;;;20.20;;
22160;SDS011;49035;48.812;11.762;2023-03-04T04:26:46;43.83;;;20.17;;
22160;SDS011;49035;48.812;11.762;2023-03-04T04:29:12;45.23;;;19.60;;
22160;SDS011;49035;48.812;11.762;2023-03-04T04:31:39;43.43;;;19.23;;
22160;SDS011;49035;48.812;11.762;2023-03-04T04:34:04;38.73;;;17.33;;
22160;SDS011;49035;48.812;11.762;2023-03-04T04:36:30;39.53;;;17.70;;
22160;SDS011;49035;48.812;11.762;2023-03-04T04:38:55;43.83;;;20.10;;
22160;SDS011;49035;48.812;11.762;2023-03-04T04:41:22;44.20;;;19.53;;
22160;SDS011;49035;48.812;11.762;2023-03-04T04:43:50;44.67;;;21.93;;
22160;SDS011;49035;48.812;11.762;2023-03-04T04:46:16;44.07;;;19.20;;
22160;SDS011;49035;48.812;11.762;2023-03-04T04:48:42;58.23;;;22.20;;
22160;SDS011;49035;48.812;11.762;2023-03-04T04:51:08;54.53;;;21.93;;
22160;SDS011;49035;48.812;11.762;2023-03-04T04:53:34;41.93;;;20.07;;
22160;SDS011;49035;48.812;11.762;2023-03-04T04:56:00;51.27;;;22.00;;
22160;SDS011;49035;48.812;11.762;2023-03-04T04:58:36;54.60;;;22.57;;
22160;SDS011;49035;48.812;11.762;2023-03-04T05:01:02;46.40;;;21.10;;
22160;SDS011;49035;48.812;11.762;2023-03-04T05:03:28;46.60;;;21.47;;
22160;SDS011;49035;48.812;11.762;2023-03-04T05:05:55;47.47;;;20.83;;
22160;SDS011;49035;48.812;11.762;2023-03-04T05:08:21;49.87;;;22.83;;
22160;SDS011;49035;48.812;11.762;2023-03-04T05:10:46;53.03;;;22.17;;
22160;SDS011;49035;48.812;11.762;2023-03-04T05:13:12;50.63;;;22.40;;
22160;SDS011;49035;48.812;11.762;2023-03-04T05:15:37;49.77;;;22.10;;
22160;SDS011;49035;48.812;11.762;2023-03-04T05:18:03;48.43;;;20.53;;
22160;SDS011;49035;48.812;11.762;2023-03-04T05:20:29;54.40;;;22.43;;
22160;SDS011;49035;48.812;11.762;2023-03-04T05:22:54;43.37;;;20.83;;
22160;SDS011;49035;48.812;11.762;2023-03-04T05:25:20;44.67;;;20.83;;
22160;SDS011;49035;48.812;11.762;2023-03-04T05:27:45;51.50;;;21.80;;
22160;SDS011;49035;48.812;11.762;2023-03-04T05:30:11;48.70;;;20.10;;
22160;SDS011;49035;48.812;11.762;2023-03-04T05:32:37;48.33;;;22.17;;
22160;SDS011;49035;48.812;11.762;2023-03-04T05:35:02;50.53;;;21.47;;
22160;SDS011;49035;48.812;11.762;2023-03-04T05:37:28;48.30;;;20.40;;
22160;SDS011;49035;48.812;11.762;2023-03-04T05:39:54;48.00;;;21.53;;
22160;SDS011;49035;48.812;11.762;2023-03-04T05:42:19;50.67;;;21.00;;
22160;SDS011;49035;48.812;11.762;2023-03-04T05:44:45;50.20;;;21.13;;
22160;SDS011;49035;48.812;11.762;2023-03-04T05:47:10;45.43;;;19.93;;
22160;SDS011;49035;48.812;11.762;2023-03-04T05:49:36;47.00;;;18.43;;
22160;SDS011;49035;48.812;11.762;2023-03-04T05:52:02;41.40;;;18.73;;
22160;SDS011;49035;48.812;11.762;2023-03-04T05:54:27;44.33;;;20.27;;
22160;SDS011;49035;48.812;11.762;2023-03-04T05:56:53;45.77;;;19.90;;
22160;SDS011;49035;48.812;11.762;2023-03-04T05:59:19;42.33;;;20.00;;
22160;SDS011;49035;48.812;11.762;2023-03-04T06:01:45;42.37;;;20.33;;
22160;SDS011;49035;48.812;11.762;2023-03-04T06:04:11;38.90;;;19.40;;
22160;SDS011;49035;48.812;11.762;2023-03-04T06:06:37;41.73;;;19.37;;
22160;SDS011;49035;48.812;11.762;2023-03-04T06:09:02;49.27;;;20.90;;
22160;SDS011;49035;48.812;11.762;2023-03-04T06:11:28;40.30;;;19.47;;
22160;SDS011;49035;48.812;11.762;2023-03-04T06:13:54;39.27;;;19.23;;
22160;SDS011;49035;48.812;11.762;2023-03-04T06:16:19;43.57;;;19.37;;
22160;SDS011;49035;48.812;11.762;2023-03-04T06:18:45;44.90;;;20.50;;
22160;SDS011;49035;48.812;11.762;2023-03-04T06:21:10;41.57;;;18.27;;
22160;SDS011;49035;48.812;11.762;2023-03-04T06:23:36;42.30;;;18.63;;
22160;SDS011;49035;48.812;11.762;2023-03-04T06:26:02;41.03;;;18.07;;
22160;SDS011;49035;48.812;11.762;2023-03-04T06:28:28;45.10;;;21.00;;
22160;SDS011;49035;48.812;11.762;2023-03-04T06:30:54;45.30;;;21.23;;
22160;SDS011;49035;48.812;11.762;2023-03-04T06:33:21;50.27;;;22.07;;
22160;SDS011;49035;48.812;11.762;2023-03-04T06:35:47;50.00;;;21.53;;
22160;SDS011;49035;48.812;11.762;2023-03-04T06:38:17;47.17;;;20.80;;
22160;SDS011;49035;48.812;11.762;2023-03-04T06:40:42;42.77;;;20.60;;
22160;SDS011;49035;48.812;11.762;2023-03-04T06:43:09;46.50;;;20.57;;
22160;SDS011;49035;48.812;11.762;2023-03-04T06:45:37;44.80;;;19.90;;
22160;SDS011;49035;48.812;11.762;2023-03-04T06:48:03;46.03;;;21.50;;
22160;SDS011;49035;48.812;11.762;2023-03-04T06:50:29;46.40;;;21.30;;
22160;SDS011;49035;48.812;11.762;2023-03-04T06:52:57;46.43;;;21.53;;
22160;SDS011;49035;48.812;11.762;2023-03-04T06:55:23;49.43;;;21.90;;
22160;SDS011;49035;48.812;11.762;2023-03-04T06:57:52;50.00;;;22.43;;
22160;SDS011;49035;48.812;11.762;2023-03-04T07:00:18;47.40;;;21.07;;
22160;SDS011;49035;48.812;11.762;2023-03-04T07:02:43;46.30;;;21.63;;
22160;SDS011;49035;48.812;11.762;2023-03-04T07:05:10;46.20;;;20.47;;
22160;SDS011;49035;48.812;11.762;2023-03-04T07:07:36;44.60;;;19.60;;
22160;SDS011;49035;48.812;11.762;2023-03-04T07:10:02;49.43;;;21.17;;
22160;SDS011;49035;48.812;11.762;2023-03-04T07:12:28;45.50;;;20.13;;
22160;SDS011;49035;48.812;11.762;2023-03-04T07:14:53;47.90;;;19.93;;
22160;SDS011;49035;48.812;11.762;2023-03-04T07:17:20;49.83;;;21.43;;
22160;SDS011;49035;48.812;11.762;2023-03-04T07:19:46;47.33;;;20.97;;
22160;SDS011;49035;48.812;11.762;2023-03-04T07:22:11;48.80;;;22.17;;
22160;SDS011;49035;48.812;11.762;2023-03-04T07:24:37;58.37;;;22.43;;
22160;SDS011;49035;48.812;11.762;2023-03-04T07:27:02;43.97;;;19.77;;
22160;SDS011;49035;48.812;11.762;2023-03-04T07:29:28;35.10;;;16.70;;
22160;SDS011;49035;48.812;11.762;2023-03-04T07:31:54;37.17;;;17.03;;
22160;SDS011;49035;48.812;11.762;2023-03-04T07:34:19;34.87;;;16.03;;
22160;SDS011;49035;48.812;11.762;2023-03-04T07:36:45;33.67;;;14.90;;
22160;SDS011;49035;48.812;11.762;2023-03-04T07:39:11;34.53;;;16.17;;
22160;SDS011;49035;48.812;11.762;2023-03-04T07:41:37;34.80;;;16.83;;
22160;SDS011;49035;48.812;11.762;2023-03-04T07:44:05;34.93;;;16.57;;
22160;SDS011;49035;48.812;11.762;2023-03-04T07:46:32;35.17;;;17.23;;
22160;SDS011;49035;48.812;11.762;2023-03-04T07:48:58;33.67;;;15.73;;
22160;SDS011;49035;48.812;11.762;2023-03-04T07:51:24;30.10;;;13.80;;
22160;SDS011;49035;48.812;11.762;2023-03-04T07:53:52;35.50;;;15.47;;
22160;SDS011;49035;48.812;11.762;2023-03-04T07:56:21;28.47;;;14.23;;
22160;SDS011;49035;48.812;11.762;2023-03-04T07:58:48;29.70;;;15.23;;
22160;SDS011;49035;48.812;11.762;2023-03-04T08:01:18;30.07;;;14.30;;
22160;SDS011;49035;48.812;11.762;2023-03-04T08:03:49;31.80;;;13.40;;
22160;SDS011;49035;48.812;11.762;2023-03-04T08:06:16;25.90;;;14.00;;
22160;SDS011;49035;48.812;11.762;2023-03-04T08:08:43;23.37;;;12.20;;
22160;SDS011;49035;48.812;11.762;2023-03-04T08:11:11;24.53;;;13.07;;
22160;SDS011;49035;48.812;11.762;2023-03-04T08:13:38;27.73;;;13.73;;
22160;SDS011;49035;48.812;11.762;2023-03-04T08:16:05;26.87;;;12.77;;
22160;SDS011;49035;48.812;11.762;2023-03-04T08:18:31;22.97;;;12.10;;
22160;SDS011;49035;48.812;11.762;2023-03-04T08:20:56;25.00;;;12.27;;
22160;SDS011;49035;48.812;11.762;2023-03-04T08:23:22;21.77;;;11.13;;
22160;SDS011;49035;48.812;11.762;2023-03-04T08:25:48;27.27;;;12.70;;
22160;SDS011;49035;48.812;11.762;2023-03-04T08:28:13;25.50;;;13.13;;
22160;SDS011;49035;48.812;11.762;2023-03-04T08:30:39;24.63;;;12.40;;
22160;SDS011;49035;48.812;11.762;2023-03-04T08:33:06;21.97;;;11.00;;
22160;SDS011;49035;48.812;11.762;2023-03-04T08:35:32;23.90;;;12.13;;
22160;SDS011;49035;48.812;11.762;2023-03-04T08:38:00;21.47;;;11.30;;
22160;SDS011;49035;48.812;11.762;2023-03-04T08:40:26;27.13;;;11.87;;
22160;SDS011;49035;48.812;11.762;2023-03-04T08:42:52;20.93;;;11.50;;
22160;SDS011;49035;48.812;11.762;2023-03-04T08:45:17;23.87;;;10.43;;
22160;SDS011;49035;48.812;11.762;2023-03-04T08:47:43;26.33;;;11.20;;
22160;SDS011;49035;48.812;11.762;2023-03-04T08:50:09;24.73;;;11.30;;
22160;SDS011;49035;48.812;11.762;2023-03-04T08:52:35;21.50;;;9.70;;
22160;SDS011;49035;48.812;11.762;2023-03-04T08:55:00;21.13;;;11.80;;
22160;SDS011;49035;48.812;11.762;2023-03-04T08:57:26;23.40;;;11.10;;
22160;SDS011;49035;48.812;11.762;2023-03-04T08:59:52;15.63;;;7.80;;
22160;SDS011;49035;48.812;11.762;2023-03-04T09:02:17;22.10;;;11.20;;
22160;SDS011;49035;48.812;11.762;2023-03-04T09:04:43;26.73;;;12.23;;
22160;SDS011;49035;48.812;11.762;2023-03-04T09:07:08;26.10;;;12.57;;
22160;SDS011;49035;48.812;11.762;2023-03-04T09:09:34;25.30;;;11.23;;
22160;SDS011;49035;48.812;11.762;2023-03-04T09:11:59;24.80;;;11.17;;
22160;SDS011;49035;48.812;11.762;2023-03-04T09:14:26;18.83;;;8.87;;
22160;SDS011;49035;48.812;11.762;2023-03-04T09:16:51;25.60;;;11.43;;
22160;SDS011;49035;48.812;11.762;2023-03-04T09:19:17;22.77;;;10.77;;
22160;SDS011;49035;48.812;11.762;2023-03-04T09:21:43;24.03;;;11.10;;
22160;SDS011;49035;48.812;11.762;2023-03-04T09:24:08;26.07;;;12.30;;
22160;SDS011;49035;48.812;11.762;2023-03-04T09:26:34;26.07;;;11.77;;
22160;SDS011;49035;48.812;11.762;2023-03-04T09:29:00;23.47;;;11.37;;
22160;SDS011;49035;48.812;11.762;2023-03-04T09:31:27;21.97;;;11.67;;
22160;SDS011;49035;48.812;11.762;2023-03-04T09:33:53;20.03;;;11.00;;
22160;SDS011;49035;48.812;11.762;2023-03-04T09:36:20;23.03;;;10.70;;
22160;SDS011;49035;48.812;11.762;2023-03-04T09:38:46;18.70;;;9.67;;
22160;SDS011;49035;48.812;11.762;2023-03-04T09:41:16;19.47;;;10.60;;
22160;SDS011;49035;48.812;11.762;2023-03-04T09:43:45;22.90;;;10.47;;
22160;SDS011;49035;48.812;11.762;2023-03-04T09:46:13;26.80;;;11.10;;
22160;SDS011;49035;48.812;11.762;2023-03-04T09:48:43;20.90;;;10.53;;
22160;SDS011;49035;48.812;11.762;2023-03-04T09:53:47;26.27;;;11.90;;
22160;SDS011;49035;48.812;11.762;2023-03-04T09:56:22;20.17;;;11.23;;
22160;SDS011;49035;48.812;11.762;2023-03-04T09:58:55;23.33;;;11.23;;
22160;SDS011;49035;48.812;11.762;2023-03-04T10:01:35;23.50;;;11.63;;
22160;SDS011;49035;48.812;11.762;2023-03-04T10:04:17;23.40;;;11.40;;
22160;SDS011;49035;48.812;11.762;2023-03-04T10:06:57;22.37;;;11.23;;
22160;SDS011;49035;48.812;11.762;2023-03-04T10:09:29;21.00;;;11.33;;
22160;SDS011;49035;48.812;11.762;2023-03-04T10:12:19;26.00;;;11.80;;
22160;SDS011;49035;48.812;11.762;2023-03-04T10:14:51;19.60;;;10.23;;
22160;SDS011;49035;48.812;11.762;2023-03-04T10:17:27;22.77;;;10.93;;
22160;SDS011;49035;48.812;11.762;2023-03-04T10:25:12;24.97;;;10.67;;
22160;SDS011;49035;48.812;11.762;2023-03-04T10:27:39;20.90;;;10.47;;
22160;SDS011;49035;48.812;11.762;2023-03-04T10:30:10;20.03;;;10.43;;
22160;SDS011;49035;48.812;11.762;2023-03-04T10:32:51;20.90;;;9.53;;
22160;SDS011;49035;48.812;11.762;2023-03-04T10:35:17;20.03;;;10.30;;
22160;SDS011;49035;48.812;11.762;2023-03-04T10:37:46;20.63;;;9.93;;
22160;SDS011;49035;48.812;11.762;2023-03-04T10:40:19;22.83;;;10.97;;
22160;SDS011;49035;48.812;11.762;2023-03-04T10:42:47;25.37;;;11.67;;
22160;SDS011;49035;48.812;11.762;2023-03-04T10:45:22;23.70;;;11.60;;
22160;SDS011;49035;48.812;11.762;2023-03-04T10:47:54;26.17;;;11.97;;
22160;SDS011;49035;48.812;11.762;2023-03-04T10:50:21;23.23;;;10.70;;
22160;SDS011;49035;48.812;11.762;2023-03-04T10:52:49;26.73;;;12.00;;
22160;SDS011;49035;48.812;11.762;2023-03-04T10:58:10;23.90;;;11.43;;
22160;SDS011;49035;48.812;11.762;2023-03-04T11:00:39;24.60;;;10.87;;
22160;SDS011;49035;48.812;11.762;2023-03-04T11:06:06;22.70;;;11.30;;
22160;SDS011;49035;48.812;11.762;2023-03-04T11:08:35;24.53;;;11.80;;
22160;SDS011;49035;48.812;11.762;2023-03-04T11:11:09;23.70;;;11.80;;
22160;SDS011;49035;48.812;11.762;2023-03-04T11:13:57;23.53;;;11.80;;
22160;SDS011;49035;48.812;11.762;2023-03-04T11:16:27;27.57;;;13.33;;
22160;SDS011;49035;48.812;11.762;2023-03-04T11:19:05;26.47;;;12.80;;
22160;SDS011;49035;48.812;11.762;2023-03-04T11:21:39;25.30;;;12.73;;
22160;SDS011;49035;48.812;11.762;2023-03-04T11:26:40;26.57;;;13.03;;
22160;SDS011;49035;48.812;11.762;2023-03-04T11:31:48;24.20;;;12.00;;
22160;SDS011;49035;48.812;11.762;2023-03-04T11:40:04;23.77;;;12.97;;
22160;SDS011;49035;48.812;11.762;2023-03-04T11:42:53;24.77;;;12.10;;
22160;SDS011;49035;48.812;11.762;2023-03-04T11:50:51;22.03;;;12.60;;
22160;SDS011;49035;48.812;11.762;2023-03-04T11:56:33;21.77;;;12.07;;
22160;SDS011;49035;48.812;11.762;2023-03-04T11:59:40;22.47;;;12.47;;
22160;SDS011;49035;48.812;11.762;2023-03-04T12:02:31;23.57;;;12.50;;
22160;SDS011;49035;48.812;11.762;2023-03-04T12:05:27;27.27;;;14.00;;
22160;SDS011;49035;48.812;11.762;2023-03-04T12:08:12;26.13;;;12.80;;
22160;SDS011;49035;48.812;11.762;2023-03-04T12:17:19;23.67;;;12.10;;
22160;SDS011;49035;48.812;11.762;2023-03-04T12:41:38;24.67;;;14.17;;
22160;SDS011;49035;48.812;11.762;2023-03-04T12:44:21;22.57;;;12.43;;
22160;SDS011;49035;48.812;11.762;2023-03-04T12:49:46;23.53;;;12.73;;
22160;SDS011;49035;48.812;11.762;2023-03-04T12:52:21;19.50;;;11.60;;
22160;SDS011;49035;48.812;11.762;2023-03-04T12:54:57;22.93;;;12.57;;
22160;SDS011;49035;48.812;11.762;2023-03-04T12:57:28;23.23;;;12.30;;
22160;SDS011;49035;48.812;11.762;2023-03-04T13:02:50;26.93;;;12.83;;
22160;SDS011;49035;48.812;11.762;2023-03-04T13:11:02;21.17;;;11.17;;
22160;SDS011;49035;48.812;11.762;2023-03-04T13:14:04;22.10;;;12.70;;
22160;SDS011;49035;48.812;11.762;2023-03-04T13:16:31;22.90;;;12.07;;
22160;SDS011;49035;48.812;11.762;2023-03-04T13:18:59;23.53;;;12.73;;
22160;SDS011;49035;48.812;11.762;2023-03-04T13:21:25;19.97;;;11.87;;
22160;SDS011;49035;48.812;11.762;2023-03-04T13:23:55;22.67;;;13.43;;
22160;SDS011;49035;48.812;11.762;2023-03-04T13:26:22;21.33;;;12.07;;
22160;SDS011;49035;48.812;11.762;2023-03-04T13:29:43;20.53;;;11.90;;
22160;SDS011;49035;48.812;11.762;2023-03-04T13:32:50;20.87;;;11.90;;
22160;SDS011;49035;48.812;11.762;2023-03-04T13:35:00;22.63;;;12.27;;
22160;SDS011;49035;48.812;11.762;2023-03-04T13:37:27;22.43;;;12.67;;
22160;SDS011;49035;48.812;11.762;2023-03-04T13:40:32;22.83;;;11.70;;
22160;SDS011;49035;48.812;11.762;2023-03-04T13:43:17;25.27;;;12.80;;
22160;SDS011;49035;48.812;11.762;2023-03-04T13:45:49;25.13;;;12.10;;
22160;SDS011;49035;48.812;11.762;2023-03-04T13:48:33;22.27;;;11.53;;
22160;SDS011;49035;48.812;11.762;2023-03-04T13:51:01;21.50;;;11.97;;
22160;SDS011;49035;48.812;11.762;2023-03-04T13:53:46;23.23;;;12.40;;
22160;SDS011;49035;48.812;11.762;2023-03-04T14:04:34;23.33;;;12.40;;
22160;SDS011;49035;48.812;11.762;2023-03-04T14:07:03;23.30;;;12.43;;
22160;SDS011;49035;48.812;11.762;2023-03-04T14:09:52;27.57;;;13.73;;
22160;SDS011;49035;48.812;11.762;2023-03-04T14:12:33;24.27;;;13.37;;
22160;SDS011;49035;48.812;11.762;2023-03-04T14:17:43;23.13;;;12.97;;
22160;SDS011;49035;48.812;11.762;2023-03-04T14:22:50;20.63;;;12.83;;
22160;SDS011;49035;48.812;11.762;2023-03-04T14:25:23;27.97;;;14.27;;
22160;SDS011;49035;48.812;11.762;2023-03-04T14:28:30;27.03;;;12.43;;
22160;SDS011;49035;48.812;11.762;2023-03-04T14:30:52;22.73;;;12.13;;
22160;SDS011;49035;48.812;11.762;2023-03-04T14:33:22;23.77;;;12.70;;
22160;SDS011;49035;48.812;11.762;2023-03-04T14:35:51;22.67;;;13.17;;
22160;SDS011;49035;48.812;11.762;2023-03-04T14:38:24;24.57;;;13.20;;
22160;SDS011;49035;48.812;11.762;2023-03-04T14:40:56;26.13;;;14.03;;
22160;SDS011;49035;48.812;11.762;2023-03-04T14:43:35;26.47;;;14.07;;
22160;SDS011;49035;48.812;11.762;2023-03-04T14:46:07;23.10;;;12.30;;
22160;SDS011;49035;48.812;11.762;2023-03-04T14:48:37;22.70;;;12.57;;
22160;SDS011;49035;48.812;11.762;2023-03-04T14:51:26;24.87;;;13.43;;
22160;SDS011;49035;48.812;11.762;2023-03-04T14:53:56;24.43;;;12.57;;
22160;SDS011;49035;48.812;11.762;2023-03-04T14:56:26;23.17;;;12.73;;
22160;SDS011;49035;48.812;11.762;2023-03-04T14:58:56;23.87;;;12.23;;
22160;SDS011;49035;48.812;11.762;2023-03-04T15:01:27;22.03;;;13.40;;
22160;SDS011;49035;48.812;11.762;2023-03-04T15:06:24;23.67;;;13.43;;
22160;SDS011;49035;48.812;11.762;2023-03-04T15:08:59;23.03;;;12.80;;
22160;SDS011;49035;48.812;11.762;2023-03-04T15:11:31;24.73;;;13.57;;
22160;SDS011;49035;48.812;11.762;2023-03-04T15:14:34;24.07;;;12.80;;
22160;SDS011;49035;48.812;11.762;2023-03-04T15:17:23;27.27;;;13.03;;
22160;SDS011;49035;48.812;11.762;2023-03-04T15:25:13;24.93;;;13.17;;
22160;SDS011;49035;48.812;11.762;2023-03-04T15:27:40;21.50;;;12.03;;
22160;SDS011;49035;48.812;11.762;2023-03-04T15:30:12;25.83;;;13.67;;
22160;SDS011;49035;48.812;11.762;2023-03-04T15:32:45;22.27;;;13.07;;
22160;SDS011;49035;48.812;11.762;2023-03-04T15:35:11;25.97;;;13.13;;
22160;SDS011;49035;48.812;11.762;2023-03-04T15:37:38;26.67;;;13.60;;
22160;SDS011;49035;48.812;11.762;2023-03-04T15:40:06;24.33;;;13.97;;
22160;SDS011;49035;48.812;11.762;2023-03-04T15:42:46;21.50;;;12.57;;
22160;SDS011;49035;48.812;11.762;2023-03-04T15:45:22;23.57;;;12.83;;
22160;SDS011;49035;48.812;11.762;2023-03-04T15:47:52;26.93;;;12.90;;
22160;SDS011;49035;48.812;11.762;2023-03-04T15:50:19;22.40;;;12.97;;
22160;SDS011;49035;48.812;11.762;2023-03-04T15:52:46;25.20;;;12.37;;
22160;SDS011;49035;48.812;11.762;2023-03-04T15:55:18;24.13;;;14.17;;
22160;SDS011;49035;48.812;11.762;2023-03-04T15:57:46;24.50;;;13.33;;
22160;SDS011;49035;48.812;11.762;2023-03-04T16:00:13;20.73;;;12.87;;
22160;SDS011;49035;48.812;11.762;2023-03-04T16:02:39;23.37;;;12.67;;
22160;SDS011;49035;48.812;11.762;2023-03-04T16:05:06;23.10;;;12.67;;